sensor_id;sensor_type;location;lat;lon;timestamp;P1;durP1;ratioP1;P2;durP2;ratioP2
11887;SDS011;6003;42.756;23.130;2023-07-13T00:00:07;3.30;;;3.00;;
11887;SDS011;6003;42.756;23.130;2023-07-13T00:02:35;2.50;;;2.30;;
11887;SDS011;6003;42.756;23.130;2023-07-13T00:05:02;3.97;;;2.93;;
11887;SDS011;6003;42.756;23.130;2023-07-13T00:07:30;7.50;;;3.80;;
11887;SDS011;6003;42.756;23.130;2023-07-13T00:09:56;5.20;;;3.53;;
11887;SDS011;6003;42.756;23.130;2023-07-13T00:12:26;3.77;;;2.80;;
11887;SDS011;6003;42.756;23.130;2023-07-13T00:14:56;3.43;;;2.90;;
11887;SDS011;6003;42.756;23.130;2023-07-13T00:17:24;4.27;;;2.83;;
11887;SDS011;6003;42.756;23.130;2023-07-13T00:19:52;4.67;;;2.80;;
11887;SDS011;6003;42.756;23.130;2023-07-13T00:22:20;5.50;;;2.93;;
11887;SDS011;6003;42.756;23.130;2023-07-13T00:24:50;3.30;;;2.70;;
11887;SDS011;6003;42.756;23.130;2023-07-13T00:27:17;3.47;;;3.03;;
11887;SDS011;6003;42.756;23.130;2023-07-13T00:29:45;3.23;;;2.93;;
11887;SDS011;6003;42.756;23.130;2023-07-13T00:32:12;3.40;;;3.10;;
11887;SDS011;6003;42.756;23.130;2023-07-13T00:34:39;4.23;;;2.97;;
11887;SDS011;6003;42.756;23.130;2023-07-13T00:37:07;3.17;;;2.93;;
11887;SDS011;6003;42.756;23.130;2023-07-13T00:39:34;3.30;;;3.00;;
11887;SDS011;6003;42.756;23.130;2023-07-13T00:42:02;3.37;;;3.07;;
11887;SDS011;6003;42.756;23.130;2023-07-13T00:44:29;3.87;;;3.53;;
11887;SDS011;6003;42.756;23.130;2023-07-13T00:46:58;4.03;;;2.80;;
11887;SDS011;6003;42.756;23.130;2023-07-13T00:49:25;3.53;;;3.23;;
11887;SDS011;6003;42.756;23.130;2023-07-13T00:51:57;3.60;;;2.97;;
11887;SDS011;6003;42.756;23.130;2023-07-13T00:54:28;3.80;;;3.00;;
11887;SDS011;6003;42.756;23.130;2023-07-13T00:56:59;3.20;;;3.00;;
11887;SDS011;6003;42.756;23.130;2023-07-13T00:59:28;3.07;;;2.77;;
11887;SDS011;6003;42.756;23.130;2023-07-13T01:01:58;2.83;;;2.60;;
11887;SDS011;6003;42.756;23.130;2023-07-13T01:04:25;4.53;;;3.53;;
11887;SDS011;6003;42.756;23.130;2023-07-13T01:06:53;3.80;;;3.47;;
11887;SDS011;6003;42.756;23.130;2023-07-13T01:09:20;3.43;;;3.13;;
11887;SDS011;6003;42.756;23.130;2023-07-13T01:11:47;4.37;;;3.23;;
11887;SDS011;6003;42.756;23.130;2023-07-13T01:14:14;4.93;;;3.50;;
11887;SDS011;6003;42.756;23.130;2023-07-13T01:16:43;5.17;;;3.60;;
11887;SDS011;6003;42.756;23.130;2023-07-13T01:19:15;4.47;;;3.23;;
11887;SDS011;6003;42.756;23.130;2023-07-13T01:22:02;3.67;;;3.37;;
11887;SDS011;6003;42.756;23.130;2023-07-13T01:24:34;3.73;;;3.30;;
11887;SDS011;6003;42.756;23.130;2023-07-13T01:27:01;4.37;;;3.30;;
11887;SDS011;6003;42.756;23.130;2023-07-13T01:29:29;4.00;;;3.13;;
11887;SDS011;6003;42.756;23.130;2023-07-13T01:31:56;3.70;;;3.40;;
11887;SDS011;6003;42.756;23.130;2023-07-13T01:34:23;4.97;;;3.70;;
11887;SDS011;6003;42.756;23.130;2023-07-13T01:36:50;3.90;;;3.57;;
11887;SDS011;6003;42.756;23.130;2023-07-13T01:39:20;4.93;;;3.20;;
11887;SDS011;6003;42.756;23.130;2023-07-13T01:41:47;6.60;;;3.20;;
11887;SDS011;6003;42.756;23.130;2023-07-13T01:44:13;4.77;;;3.37;;
11887;SDS011;6003;42.756;23.130;2023-07-13T01:46:40;3.10;;;2.80;;
11887;SDS011;6003;42.756;23.130;2023-07-13T01:49:07;3.57;;;3.23;;
11887;SDS011;6003;42.756;23.130;2023-07-13T01:51:34;4.03;;;3.63;;
11887;SDS011;6003;42.756;23.130;2023-07-13T01:54:01;3.23;;;2.93;;
11887;SDS011;6003;42.756;23.130;2023-07-13T01:56:29;3.90;;;3.50;;
11887;SDS011;6003;42.756;23.130;2023-07-13T01:58:56;7.33;;;3.43;;
11887;SDS011;6003;42.756;23.130;2023-07-13T02:01:23;3.97;;;3.30;;
11887;SDS011;6003;42.756;23.130;2023-07-13T02:03:50;4.80;;;3.43;;
11887;SDS011;6003;42.756;23.130;2023-07-13T02:06:16;4.00;;;3.47;;
11887;SDS011;6003;42.756;23.130;2023-07-13T02:08:43;4.20;;;3.57;;
11887;SDS011;6003;42.756;23.130;2023-07-13T02:11:11;3.80;;;3.50;;
11887;SDS011;6003;42.756;23.130;2023-07-13T02:13:39;4.30;;;3.90;;
11887;SDS011;6003;42.756;23.130;2023-07-13T02:16:06;3.87;;;3.47;;
11887;SDS011;6003;42.756;23.130;2023-07-13T02:18:33;3.87;;;3.37;;
11887;SDS011;6003;42.756;23.130;2023-07-13T02:21:00;6.60;;;3.80;;
11887;SDS011;6003;42.756;23.130;2023-07-13T02:23:27;4.27;;;3.53;;
11887;SDS011;6003;42.756;23.130;2023-07-13T02:25:55;6.33;;;3.90;;
11887;SDS011;6003;42.756;23.130;2023-07-13T02:28:22;3.73;;;3.40;;
11887;SDS011;6003;42.756;23.130;2023-07-13T02:30:50;5.70;;;3.50;;
11887;SDS011;6003;42.756;23.130;2023-07-13T02:33:17;5.33;;;3.93;;
11887;SDS011;6003;42.756;23.130;2023-07-13T02:35:44;11.27;;;5.63;;
11887;SDS011;6003;42.756;23.130;2023-07-13T02:38:11;15.73;;;6.13;;
11887;SDS011;6003;42.756;23.130;2023-07-13T02:40:38;7.87;;;4.87;;
11887;SDS011;6003;42.756;23.130;2023-07-13T02:43:04;8.50;;;4.73;;
11887;SDS011;6003;42.756;23.130;2023-07-13T02:45:31;8.53;;;4.60;;
11887;SDS011;6003;42.756;23.130;2023-07-13T02:47:59;9.97;;;4.67;;
11887;SDS011;6003;42.756;23.130;2023-07-13T02:50:26;6.33;;;4.37;;
11887;SDS011;6003;42.756;23.130;2023-07-13T02:52:53;11.67;;;5.07;;
11887;SDS011;6003;42.756;23.130;2023-07-13T02:55:20;16.70;;;6.30;;
11887;SDS011;6003;42.756;23.130;2023-07-13T02:57:46;12.30;;;6.00;;
11887;SDS011;6003;42.756;23.130;2023-07-13T03:00:15;16.90;;;5.40;;
11887;SDS011;6003;42.756;23.130;2023-07-13T03:02:42;10.10;;;5.97;;
11887;SDS011;6003;42.756;23.130;2023-07-13T03:05:10;9.03;;;4.80;;
11887;SDS011;6003;42.756;23.130;2023-07-13T03:07:37;5.67;;;4.20;;
11887;SDS011;6003;42.756;23.130;2023-07-13T03:10:05;5.17;;;4.07;;
11887;SDS011;6003;42.756;23.130;2023-07-13T03:12:32;7.23;;;3.87;;
11887;SDS011;6003;42.756;23.130;2023-07-13T03:14:59;6.90;;;3.60;;
11887;SDS011;6003;42.756;23.130;2023-07-13T03:17:26;11.00;;;4.43;;
11887;SDS011;6003;42.756;23.130;2023-07-13T03:19:53;8.00;;;4.60;;
11887;SDS011;6003;42.756;23.130;2023-07-13T03:22:21;6.37;;;3.90;;
11887;SDS011;6003;42.756;23.130;2023-07-13T03:24:47;5.57;;;3.30;;
11887;SDS011;6003;42.756;23.130;2023-07-13T03:27:15;4.30;;;3.50;;
11887;SDS011;6003;42.756;23.130;2023-07-13T03:29:42;4.17;;;3.77;;
11887;SDS011;6003;42.756;23.130;2023-07-13T03:32:09;5.17;;;4.00;;
11887;SDS011;6003;42.756;23.130;2023-07-13T03:34:36;18.83;;;7.57;;
11887;SDS011;6003;42.756;23.130;2023-07-13T03:37:03;13.00;;;6.23;;
11887;SDS011;6003;42.756;23.130;2023-07-13T03:39:31;7.90;;;5.00;;
11887;SDS011;6003;42.756;23.130;2023-07-13T03:41:58;7.87;;;4.53;;
11887;SDS011;6003;42.756;23.130;2023-07-13T03:44:25;7.50;;;4.40;;
11887;SDS011;6003;42.756;23.130;2023-07-13T03:46:52;7.83;;;3.67;;
11887;SDS011;6003;42.756;23.130;2023-07-13T03:49:19;7.13;;;4.07;;
11887;SDS011;6003;42.756;23.130;2023-07-13T03:51:45;6.73;;;3.83;;
11887;SDS011;6003;42.756;23.130;2023-07-13T03:54:12;5.60;;;4.17;;
11887;SDS011;6003;42.756;23.130;2023-07-13T03:56:40;6.80;;;4.67;;
11887;SDS011;6003;42.756;23.130;2023-07-13T03:59:07;10.63;;;4.80;;
11887;SDS011;6003;42.756;23.130;2023-07-13T04:01:34;7.93;;;5.10;;
11887;SDS011;6003;42.756;23.130;2023-07-13T04:04:01;6.83;;;5.10;;
11887;SDS011;6003;42.756;23.130;2023-07-13T04:06:29;6.90;;;4.83;;
11887;SDS011;6003;42.756;23.130;2023-07-13T04:08:57;8.03;;;4.73;;
11887;SDS011;6003;42.756;23.130;2023-07-13T04:11:26;11.57;;;5.57;;
11887;SDS011;6003;42.756;23.130;2023-07-13T04:13:55;7.03;;;4.60;;
11887;SDS011;6003;42.756;23.130;2023-07-13T04:16:22;4.70;;;4.15;;
11887;SDS011;6003;42.756;23.130;2023-07-13T04:18:50;4.28;;;3.88;;
11887;SDS011;6003;42.756;23.130;2023-07-13T04:21:20;6.30;;;4.03;;
11887;SDS011;6003;42.756;23.130;2023-07-13T04:23:47;4.72;;;4.30;;
11887;SDS011;6003;42.756;23.130;2023-07-13T04:26:13;6.40;;;3.40;;
11887;SDS011;6003;42.756;23.130;2023-07-13T04:28:40;13.85;;;10.98;;
11887;SDS011;6003;42.756;23.130;2023-07-13T04:31:09;4.60;;;3.75;;
11887;SDS011;6003;42.756;23.130;2023-07-13T04:33:35;4.03;;;3.63;;
11887;SDS011;6003;42.756;23.130;2023-07-13T04:36:02;4.53;;;3.97;;
11887;SDS011;6003;42.756;23.130;2023-07-13T04:38:30;3.72;;;3.40;;
11887;SDS011;6003;42.756;23.130;2023-07-13T04:40:59;4.35;;;3.95;;
11887;SDS011;6003;42.756;23.130;2023-07-13T04:43:28;3.92;;;3.63;;
11887;SDS011;6003;42.756;23.130;2023-07-13T04:45:55;5.75;;;3.80;;
11887;SDS011;6003;42.756;23.130;2023-07-13T04:48:24;3.67;;;3.30;;
11887;SDS011;6003;42.756;23.130;2023-07-13T04:50:54;4.53;;;3.47;;
11887;SDS011;6003;42.756;23.130;2023-07-13T04:53:22;4.32;;;3.70;;
11887;SDS011;6003;42.756;23.130;2023-07-13T04:55:49;3.88;;;3.50;;
11887;SDS011;6003;42.756;23.130;2023-07-13T04:58:16;6.22;;;4.25;;
11887;SDS011;6003;42.756;23.130;2023-07-13T05:00:43;4.28;;;3.92;;
11887;SDS011;6003;42.756;23.130;2023-07-13T05:03:10;4.72;;;4.32;;
11887;SDS011;6003;42.756;23.130;2023-07-13T05:05:38;6.82;;;4.75;;
11887;SDS011;6003;42.756;23.130;2023-07-13T05:08:05;4.53;;;4.15;;
11887;SDS011;6003;42.756;23.130;2023-07-13T05:10:33;4.47;;;4.18;;
11887;SDS011;6003;42.756;23.130;2023-07-13T05:12:59;5.38;;;4.88;;
11887;SDS011;6003;42.756;23.130;2023-07-13T05:15:26;4.57;;;4.18;;
11887;SDS011;6003;42.756;23.130;2023-07-13T05:17:53;5.20;;;4.50;;
11887;SDS011;6003;42.756;23.130;2023-07-13T05:20:20;5.07;;;4.68;;
11887;SDS011;6003;42.756;23.130;2023-07-13T05:22:48;5.43;;;4.75;;
11887;SDS011;6003;42.756;23.130;2023-07-13T05:25:15;6.50;;;4.88;;
11887;SDS011;6003;42.756;23.130;2023-07-13T05:27:42;5.95;;;5.18;;
11887;SDS011;6003;42.756;23.130;2023-07-13T05:30:11;8.05;;;5.10;;
11887;SDS011;6003;42.756;23.130;2023-07-13T05:32:38;8.23;;;4.72;;
11887;SDS011;6003;42.756;23.130;2023-07-13T05:35:05;4.28;;;3.97;;
11887;SDS011;6003;42.756;23.130;2023-07-13T05:37:32;6.00;;;4.70;;
11887;SDS011;6003;42.756;23.130;2023-07-13T05:40:00;4.25;;;3.88;;
11887;SDS011;6003;42.756;23.130;2023-07-13T05:42:27;6.95;;;4.60;;
11887;SDS011;6003;42.756;23.130;2023-07-13T05:44:56;5.20;;;4.80;;
11887;SDS011;6003;42.756;23.130;2023-07-13T05:47:23;4.55;;;4.13;;
11887;SDS011;6003;42.756;23.130;2023-07-13T05:49:49;4.55;;;4.20;;
11887;SDS011;6003;42.756;23.130;2023-07-13T05:52:16;4.45;;;4.10;;
11887;SDS011;6003;42.756;23.130;2023-07-13T05:54:43;7.20;;;4.30;;
11887;SDS011;6003;42.756;23.130;2023-07-13T05:57:11;5.80;;;4.47;;
11887;SDS011;6003;42.756;23.130;2023-07-13T05:59:38;6.35;;;5.03;;
11887;SDS011;6003;42.756;23.130;2023-07-13T06:02:05;6.07;;;5.05;;
11887;SDS011;6003;42.756;23.130;2023-07-13T06:04:32;4.93;;;4.53;;
11887;SDS011;6003;42.756;23.130;2023-07-13T06:06:58;5.35;;;4.85;;
11887;SDS011;6003;42.756;23.130;2023-07-13T06:09:26;4.93;;;4.45;;
11887;SDS011;6003;42.756;23.130;2023-07-13T06:11:53;5.03;;;4.55;;
11887;SDS011;6003;42.756;23.130;2023-07-13T06:14:22;5.10;;;4.65;;
11887;SDS011;6003;42.756;23.130;2023-07-13T06:16:49;5.30;;;4.85;;
11887;SDS011;6003;42.756;23.130;2023-07-13T06:19:16;5.18;;;4.68;;
11887;SDS011;6003;42.756;23.130;2023-07-13T06:21:43;6.82;;;4.13;;
11887;SDS011;6003;42.756;23.130;2023-07-13T06:24:09;5.25;;;4.78;;
11887;SDS011;6003;42.756;23.130;2023-07-13T06:26:37;4.85;;;4.40;;
11887;SDS011;6003;42.756;23.130;2023-07-13T06:29:03;5.22;;;4.13;;
11887;SDS011;6003;42.756;23.130;2023-07-13T06:31:32;5.70;;;4.70;;
11887;SDS011;6003;42.756;23.130;2023-07-13T06:33:59;6.10;;;4.90;;
11887;SDS011;6003;42.756;23.130;2023-07-13T06:36:25;6.75;;;4.85;;
11887;SDS011;6003;42.756;23.130;2023-07-13T06:38:53;5.22;;;4.75;;
11887;SDS011;6003;42.756;23.130;2023-07-13T06:41:20;6.05;;;4.50;;
11887;SDS011;6003;42.756;23.130;2023-07-13T06:43:47;4.97;;;4.45;;
11887;SDS011;6003;42.756;23.130;2023-07-13T06:58:00;9.00;;;4.85;;
11887;SDS011;6003;42.756;23.130;2023-07-13T07:00:27;4.53;;;4.20;;
11887;SDS011;6003;42.756;23.130;2023-07-13T07:02:54;5.07;;;4.68;;
11887;SDS011;6003;42.756;23.130;2023-07-13T07:05:21;5.70;;;5.13;;
11887;SDS011;6003;42.756;23.130;2023-07-13T07:07:49;5.65;;;5.03;;
11887;SDS011;6003;42.756;23.130;2023-07-13T07:10:16;7.63;;;4.43;;
11887;SDS011;6003;42.756;23.130;2023-07-13T07:12:43;5.60;;;5.13;;
11887;SDS011;6003;42.756;23.130;2023-07-13T07:15:11;5.70;;;4.30;;
11887;SDS011;6003;42.756;23.130;2023-07-13T07:17:38;6.32;;;4.90;;
11887;SDS011;6003;42.756;23.130;2023-07-13T07:20:06;5.30;;;4.80;;
11887;SDS011;6003;42.756;23.130;2023-07-13T07:22:33;5.20;;;4.70;;
11887;SDS011;6003;42.756;23.130;2023-07-13T07:25:00;6.50;;;4.57;;
11887;SDS011;6003;42.756;23.130;2023-07-13T07:27:27;5.72;;;5.22;;
11887;SDS011;6003;42.756;23.130;2023-07-13T07:29:54;6.97;;;4.45;;
11887;SDS011;6003;42.756;23.130;2023-07-13T07:32:24;6.72;;;4.85;;
11887;SDS011;6003;42.756;23.130;2023-07-13T07:34:51;5.43;;;4.93;;
11887;SDS011;6003;42.756;23.130;2023-07-13T07:37:17;4.45;;;4.05;;
11887;SDS011;6003;42.756;23.130;2023-07-13T07:39:44;7.18;;;4.32;;
11887;SDS011;6003;42.756;23.130;2023-07-13T07:42:11;4.75;;;4.35;;
11887;SDS011;6003;42.756;23.130;2023-07-13T07:44:39;5.03;;;4.53;;
11887;SDS011;6003;42.756;23.130;2023-07-13T07:47:07;5.60;;;3.85;;
11887;SDS011;6003;42.756;23.130;2023-07-13T07:49:35;4.55;;;4.10;;
11887;SDS011;6003;42.756;23.130;2023-07-13T07:52:03;5.18;;;4.35;;
11887;SDS011;6003;42.756;23.130;2023-07-13T07:54:30;5.57;;;4.75;;
11887;SDS011;6003;42.756;23.130;2023-07-13T07:56:57;4.78;;;4.38;;
11887;SDS011;6003;42.756;23.130;2023-07-13T07:59:24;3.83;;;3.50;;
11887;SDS011;6003;42.756;23.130;2023-07-13T08:01:51;3.58;;;2.90;;
11887;SDS011;6003;42.756;23.130;2023-07-13T08:04:18;3.78;;;2.83;;
11887;SDS011;6003;42.756;23.130;2023-07-13T08:06:46;3.63;;;2.83;;
11887;SDS011;6003;42.756;23.130;2023-07-13T08:09:13;3.25;;;2.95;;
11887;SDS011;6003;42.756;23.130;2023-07-13T08:11:39;3.53;;;2.75;;
11887;SDS011;6003;42.756;23.130;2023-07-13T08:14:06;2.63;;;2.42;;
11887;SDS011;6003;42.756;23.130;2023-07-13T08:16:34;3.22;;;2.65;;
11887;SDS011;6003;42.756;23.130;2023-07-13T08:19:01;3.17;;;2.88;;
11887;SDS011;6003;42.756;23.130;2023-07-13T08:21:29;2.70;;;2.53;;
11887;SDS011;6003;42.756;23.130;2023-07-13T08:23:57;2.60;;;2.40;;
11887;SDS011;6003;42.756;23.130;2023-07-13T08:26:24;3.53;;;3.22;;
11887;SDS011;6003;42.756;23.130;2023-07-13T08:28:51;4.90;;;3.28;;
11887;SDS011;6003;42.756;23.130;2023-07-13T08:31:17;2.75;;;2.55;;
11887;SDS011;6003;42.756;23.130;2023-07-13T08:33:44;2.72;;;2.53;;
11887;SDS011;6003;42.756;23.130;2023-07-13T08:36:11;3.28;;;3.00;;
11887;SDS011;6003;42.756;23.130;2023-07-13T08:38:38;4.28;;;3.00;;
11887;SDS011;6003;42.756;23.130;2023-07-13T08:41:11;6.82;;;3.65;;
11887;SDS011;6003;42.756;23.130;2023-07-13T08:43:39;3.20;;;2.90;;
11887;SDS011;6003;42.756;23.130;2023-07-13T08:46:10;3.17;;;2.88;;
11887;SDS011;6003;42.756;23.130;2023-07-13T08:48:43;3.58;;;2.85;;
11887;SDS011;6003;42.756;23.130;2023-07-13T08:51:17;3.13;;;2.50;;
11887;SDS011;6003;42.756;23.130;2023-07-13T08:53:55;2.80;;;2.67;;
11887;SDS011;6003;42.756;23.130;2023-07-13T08:56:29;2.72;;;2.60;;
11887;SDS011;6003;42.756;23.130;2023-07-13T08:58:57;2.88;;;2.65;;
11887;SDS011;6003;42.756;23.130;2023-07-13T09:01:30;3.85;;;2.88;;
11887;SDS011;6003;42.756;23.130;2023-07-13T09:04:02;3.13;;;2.90;;
11887;SDS011;6003;42.756;23.130;2023-07-13T09:06:40;4.13;;;3.17;;
11887;SDS011;6003;42.756;23.130;2023-07-13T09:09:17;3.83;;;3.40;;
11887;SDS011;6003;42.756;23.130;2023-07-13T09:11:56;3.35;;;2.95;;
11887;SDS011;6003;42.756;23.130;2023-07-13T09:14:34;3.25;;;3.05;;
11887;SDS011;6003;42.756;23.130;2023-07-13T09:17:10;3.30;;;3.08;;
11887;SDS011;6003;42.756;23.130;2023-07-13T09:19:42;3.08;;;2.88;;
11887;SDS011;6003;42.756;23.130;2023-07-13T09:22:15;3.95;;;2.75;;
11887;SDS011;6003;42.756;23.130;2023-07-13T09:24:49;4.55;;;3.28;;
11887;SDS011;6003;42.756;23.130;2023-07-13T09:27:22;3.75;;;3.33;;
11887;SDS011;6003;42.756;23.130;2023-07-13T09:29:57;3.65;;;3.35;;
11887;SDS011;6003;42.756;23.130;2023-07-13T09:32:30;3.20;;;3.00;;
11887;SDS011;6003;42.756;23.130;2023-07-13T09:34:59;3.38;;;3.08;;
11887;SDS011;6003;42.756;23.130;2023-07-13T09:37:28;3.38;;;3.08;;
11887;SDS011;6003;42.756;23.130;2023-07-13T09:39:57;2.85;;;2.58;;
11887;SDS011;6003;42.756;23.130;2023-07-13T09:42:27;3.90;;;2.83;;
11887;SDS011;6003;42.756;23.130;2023-07-13T09:44:54;3.20;;;2.90;;
11887;SDS011;6003;42.756;23.130;2023-07-13T09:47:24;2.78;;;2.58;;
11887;SDS011;6003;42.756;23.130;2023-07-13T09:49:54;3.00;;;2.72;;
11887;SDS011;6003;42.756;23.130;2023-07-13T09:52:23;2.80;;;2.65;;
11887;SDS011;6003;42.756;23.130;2023-07-13T09:54:51;4.78;;;2.90;;
11887;SDS011;6003;42.756;23.130;2023-07-13T09:57:24;3.90;;;3.15;;
11887;SDS011;6003;42.756;23.130;2023-07-13T09:59:54;3.97;;;2.90;;
11887;SDS011;6003;42.756;23.130;2023-07-13T10:02:25;2.70;;;2.55;;
11887;SDS011;6003;42.756;23.130;2023-07-13T10:04:55;3.05;;;2.85;;
11887;SDS011;6003;42.756;23.130;2023-07-13T10:07:24;3.15;;;2.95;;
11887;SDS011;6003;42.756;23.130;2023-07-13T10:09:52;4.00;;;2.60;;
11887;SDS011;6003;42.756;23.130;2023-07-13T10:12:19;3.30;;;3.00;;
11887;SDS011;6003;42.756;23.130;2023-07-13T10:14:48;3.13;;;2.88;;
11887;SDS011;6003;42.756;23.130;2023-07-13T10:17:19;2.92;;;2.72;;
11887;SDS011;6003;42.756;23.130;2023-07-13T10:19:55;2.97;;;2.78;;
11887;SDS011;6003;42.756;23.130;2023-07-13T10:22:29;3.90;;;3.20;;
11887;SDS011;6003;42.756;23.130;2023-07-13T10:25:08;2.78;;;2.58;;
11887;SDS011;6003;42.756;23.130;2023-07-13T10:27:41;3.00;;;2.80;;
11887;SDS011;6003;42.756;23.130;2023-07-13T10:30:11;2.55;;;2.42;;
11887;SDS011;6003;42.756;23.130;2023-07-13T10:32:42;6.65;;;2.83;;
11887;SDS011;6003;42.756;23.130;2023-07-13T10:35:10;5.63;;;3.30;;
11887;SDS011;6003;42.756;23.130;2023-07-13T10:37:41;2.85;;;2.65;;
11887;SDS011;6003;42.756;23.130;2023-07-13T10:40:14;4.63;;;3.28;;
11887;SDS011;6003;42.756;23.130;2023-07-13T10:42:46;3.10;;;2.90;;
11887;SDS011;6003;42.756;23.130;2023-07-13T10:45:18;2.95;;;2.75;;
11887;SDS011;6003;42.756;23.130;2023-07-13T10:47:48;4.50;;;2.95;;
11887;SDS011;6003;42.756;23.130;2023-07-13T10:50:20;3.13;;;2.92;;
11887;SDS011;6003;42.756;23.130;2023-07-13T10:52:50;3.05;;;2.85;;
11887;SDS011;6003;42.756;23.130;2023-07-13T10:55:36;3.33;;;3.00;;
11887;SDS011;6003;42.756;23.130;2023-07-13T10:58:11;3.10;;;2.83;;
11887;SDS011;6003;42.756;23.130;2023-07-13T11:00:46;3.20;;;2.95;;
11887;SDS011;6003;42.756;23.130;2023-07-13T11:03:17;2.65;;;2.55;;
11887;SDS011;6003;42.756;23.130;2023-07-13T11:05:48;7.30;;;3.03;;
11887;SDS011;6003;42.756;23.130;2023-07-13T11:08:19;2.95;;;2.75;;
11887;SDS011;6003;42.756;23.130;2023-07-13T11:10:52;3.10;;;2.72;;
11887;SDS011;6003;42.756;23.130;2023-07-13T11:13:39;3.15;;;2.85;;
11887;SDS011;6003;42.756;23.130;2023-07-13T11:16:37;2.85;;;2.70;;
11887;SDS011;6003;42.756;23.130;2023-07-13T11:22:10;3.22;;;2.92;;
11887;SDS011;6003;42.756;23.130;2023-07-13T11:24:55;4.15;;;2.78;;
11887;SDS011;6003;42.756;23.130;2023-07-13T11:27:32;2.67;;;2.45;;
11887;SDS011;6003;42.756;23.130;2023-07-13T11:33:01;2.88;;;2.67;;
11887;SDS011;6003;42.756;23.130;2023-07-13T11:35:33;2.92;;;2.70;;
11887;SDS011;6003;42.756;23.130;2023-07-13T11:38:04;3.03;;;2.80;;
11887;SDS011;6003;42.756;23.130;2023-07-13T11:40:40;3.03;;;2.78;;
11887;SDS011;6003;42.756;23.130;2023-07-13T11:43:11;3.00;;;2.70;;
11887;SDS011;6003;42.756;23.130;2023-07-13T11:45:40;3.15;;;2.90;;
11887;SDS011;6003;42.756;23.130;2023-07-13T11:48:17;3.42;;;3.13;;
11887;SDS011;6003;42.756;23.130;2023-07-13T11:50:51;4.53;;;2.97;;
11887;SDS011;6003;42.756;23.130;2023-07-13T11:53:20;3.97;;;3.15;;
11887;SDS011;6003;42.756;23.130;2023-07-13T11:55:48;3.22;;;2.90;;
11887;SDS011;6003;42.756;23.130;2023-07-13T11:58:17;6.57;;;2.95;;
11887;SDS011;6003;42.756;23.130;2023-07-13T12:00:49;3.10;;;2.90;;
11887;SDS011;6003;42.756;23.130;2023-07-13T12:03:18;5.28;;;3.30;;
11887;SDS011;6003;42.756;23.130;2023-07-13T12:05:57;2.88;;;2.67;;
11887;SDS011;6003;42.756;23.130;2023-07-13T12:08:26;3.00;;;2.80;;
11887;SDS011;6003;42.756;23.130;2023-07-13T12:10:56;3.65;;;2.60;;
11887;SDS011;6003;42.756;23.130;2023-07-13T12:13:26;2.92;;;2.67;;
11887;SDS011;6003;42.756;23.130;2023-07-13T12:15:55;2.78;;;2.58;;
11887;SDS011;6003;42.756;23.130;2023-07-13T12:18:28;3.10;;;2.80;;
11887;SDS011;6003;42.756;23.130;2023-07-13T12:20:58;4.07;;;2.95;;
11887;SDS011;6003;42.756;23.130;2023-07-13T12:23:26;3.50;;;3.20;;
11887;SDS011;6003;42.756;23.130;2023-07-13T12:25:56;3.72;;;3.30;;
11887;SDS011;6003;42.756;23.130;2023-07-13T12:28:30;3.20;;;2.90;;
11887;SDS011;6003;42.756;23.130;2023-07-13T12:30:59;3.30;;;3.00;;
11887;SDS011;6003;42.756;23.130;2023-07-13T12:33:27;2.92;;;2.72;;
11887;SDS011;6003;42.756;23.130;2023-07-13T12:35:59;3.45;;;3.15;;
11887;SDS011;6003;42.756;23.130;2023-07-13T12:38:28;3.38;;;2.88;;
11887;SDS011;6003;42.756;23.130;2023-07-13T12:40:56;3.20;;;2.90;;
11887;SDS011;6003;42.756;23.130;2023-07-13T12:43:24;2.92;;;2.63;;
11887;SDS011;6003;42.756;23.130;2023-07-13T12:45:56;5.63;;;3.08;;
11887;SDS011;6003;42.756;23.130;2023-07-13T12:48:25;2.70;;;2.60;;
11887;SDS011;6003;42.756;23.130;2023-07-13T12:50:53;3.97;;;3.42;;
11887;SDS011;6003;42.756;23.130;2023-07-13T12:53:23;5.50;;;2.60;;
11887;SDS011;6003;42.756;23.130;2023-07-13T12:55:56;3.70;;;2.45;;
11887;SDS011;6003;42.756;23.130;2023-07-13T12:58:29;2.72;;;2.42;;
11887;SDS011;6003;42.756;23.130;2023-07-13T13:00:59;8.52;;;2.97;;
11887;SDS011;6003;42.756;23.130;2023-07-13T13:03:29;4.68;;;2.78;;
11887;SDS011;6003;42.756;23.130;2023-07-13T13:05:59;4.22;;;2.95;;
11887;SDS011;6003;42.756;23.130;2023-07-13T13:08:29;4.03;;;3.05;;
11887;SDS011;6003;42.756;23.130;2023-07-13T13:10:56;2.97;;;2.65;;
11887;SDS011;6003;42.756;23.130;2023-07-13T13:13:23;3.28;;;2.95;;
11887;SDS011;6003;42.756;23.130;2023-07-13T13:15:50;4.82;;;2.60;;
11887;SDS011;6003;42.756;23.130;2023-07-13T13:18:18;3.03;;;2.70;;
11887;SDS011;6003;42.756;23.130;2023-07-13T13:20:47;3.97;;;3.30;;
11887;SDS011;6003;42.756;23.130;2023-07-13T13:23:14;3.00;;;2.80;;
11887;SDS011;6003;42.756;23.130;2023-07-13T13:25:44;3.72;;;2.88;;
11887;SDS011;6003;42.756;23.130;2023-07-13T13:28:13;4.20;;;3.00;;
11887;SDS011;6003;42.756;23.130;2023-07-13T13:30:41;6.28;;;2.90;;
11887;SDS011;6003;42.756;23.130;2023-07-13T13:33:09;2.88;;;2.60;;
11887;SDS011;6003;42.756;23.130;2023-07-13T13:35:38;3.83;;;2.63;;
11887;SDS011;6003;42.756;23.130;2023-07-13T13:38:09;3.22;;;2.85;;
11887;SDS011;6003;42.756;23.130;2023-07-13T13:40:39;2.70;;;2.50;;
11887;SDS011;6003;42.756;23.130;2023-07-13T13:43:15;4.88;;;2.60;;
11887;SDS011;6003;42.756;23.130;2023-07-13T13:45:42;2.90;;;2.58;;
11887;SDS011;6003;42.756;23.130;2023-07-13T13:48:13;3.83;;;2.67;;
11887;SDS011;6003;42.756;23.130;2023-07-13T13:50:43;3.00;;;2.70;;
11887;SDS011;6003;42.756;23.130;2023-07-13T13:53:10;2.85;;;2.65;;
11887;SDS011;6003;42.756;23.130;2023-07-13T13:55:38;2.60;;;2.40;;
11887;SDS011;6003;42.756;23.130;2023-07-13T13:58:07;3.30;;;3.00;;
11887;SDS011;6003;42.756;23.130;2023-07-13T14:00:35;2.85;;;2.60;;
11887;SDS011;6003;42.756;23.130;2023-07-13T14:03:03;3.13;;;2.83;;
11887;SDS011;6003;42.756;23.130;2023-07-13T14:05:32;2.72;;;2.53;;
11887;SDS011;6003;42.756;23.130;2023-07-13T14:07:59;5.47;;;2.63;;
11887;SDS011;6003;42.756;23.130;2023-07-13T14:10:26;3.08;;;2.78;;
11887;SDS011;6003;42.756;23.130;2023-07-13T14:12:54;3.95;;;2.55;;
11887;SDS011;6003;42.756;23.130;2023-07-13T14:15:23;4.65;;;2.58;;
11887;SDS011;6003;42.756;23.130;2023-07-13T14:17:54;3.88;;;2.67;;
11887;SDS011;6003;42.756;23.130;2023-07-13T14:20:24;2.92;;;2.72;;
11887;SDS011;6003;42.756;23.130;2023-07-13T14:22:51;3.17;;;2.83;;
11887;SDS011;6003;42.756;23.130;2023-07-13T14:25:20;2.70;;;2.50;;
11887;SDS011;6003;42.756;23.130;2023-07-13T14:27:49;2.80;;;2.60;;
11887;SDS011;6003;42.756;23.130;2023-07-13T14:30:21;2.85;;;2.67;;
11887;SDS011;6003;42.756;23.130;2023-07-13T14:32:48;3.40;;;2.90;;
11887;SDS011;6003;42.756;23.130;2023-07-13T14:35:18;3.05;;;2.83;;
11887;SDS011;6003;42.756;23.130;2023-07-13T14:37:48;3.20;;;2.90;;
11887;SDS011;6003;42.756;23.130;2023-07-13T14:40:16;3.80;;;2.90;;
11887;SDS011;6003;42.756;23.130;2023-07-13T14:42:47;3.78;;;2.63;;
11887;SDS011;6003;42.756;23.130;2023-07-13T14:45:15;2.92;;;2.63;;
11887;SDS011;6003;42.756;23.130;2023-07-13T14:47:43;4.10;;;3.00;;
11887;SDS011;6003;42.756;23.130;2023-07-13T14:50:14;3.40;;;3.10;;
11887;SDS011;6003;42.756;23.130;2023-07-13T14:52:45;3.33;;;3.03;;
11887;SDS011;6003;42.756;23.130;2023-07-13T14:55:13;6.15;;;2.97;;
11887;SDS011;6003;42.756;23.130;2023-07-13T14:57:42;3.50;;;3.25;;
11887;SDS011;6003;42.756;23.130;2023-07-13T15:00:12;3.10;;;2.90;;
11887;SDS011;6003;42.756;23.130;2023-07-13T15:02:41;3.15;;;2.85;;
11887;SDS011;6003;42.756;23.130;2023-07-13T15:05:13;5.53;;;3.00;;
11887;SDS011;6003;42.756;23.130;2023-07-13T15:07:43;3.00;;;2.80;;
11887;SDS011;6003;42.756;23.130;2023-07-13T15:10:14;3.30;;;2.95;;
11887;SDS011;6003;42.756;23.130;2023-07-13T15:12:41;3.85;;;2.95;;
11887;SDS011;6003;42.756;23.130;2023-07-13T15:15:08;3.75;;;2.83;;